Stevensville, MI (49127)

4:26 AM EDT on July 31, 2016 (GMT -0400)
Stevensville, MI | | Change Station

Elev 633 ft 42.01 °N, 86.52 °W | Updated 3 seconds ago

Mostly Cloudy
Mostly Cloudy
67.1 °F
Feels Like 67.1 °F
N
0.0
Wind Variable Wind from ENE
Gusts 0.0 mph

Today
High -- | Low -- °F
--% Chance of Precip.
Yesterday
High -- | Low -- °F
Precip. -- in
Pressure 29.97 in
Visibility 5.0 miles
Clouds Mostly Cloudy 3200 ft
Dew Point 62 °F
Humidity 84%
Rainfall 0.00 in
Snow Depth Not available.
6:39 AM 9:05 PM
Waning Crescent, 8% visible
METAR KBEH 310753Z AUTO 00000KT 5SM BR BKN032 18/17 A2998 RMK AO2 SLP149 T01830167 $
Pressure 29.97 in
Visibility 5.0 miles
Clouds Mostly Cloudy 3200 ft
Dew Point 62 °F
Humidity 84%
Rainfall 0.00 in
Snow Depth Not available.
6:39 AM 9:05 PM
Waning Crescent, 8% visible
METAR KBEH 310753Z AUTO 00000KT 5SM BR BKN032 18/17 A2998 RMK AO2 SLP149 T01830167 $

10-Day Weather Forecast

Almanac

Astronomy

Jul. 31, 2016 Rise Set
Actual Time
Civil Twilight
Nautical Twilight
Astronomical Twilight
Moon
Length of Visible Light
Length of Day
Tomorrow will be .
, % of the Moon is Illuminated

Today's Extremes

State Highs State Lows

Community

WunderPhotos

Upload Photos

1,928,768 photos uploaded!

WunderBlog® & News

Nearby

Air Quality

  Air Quality AQ Index Pollutant
Not available.

Snow Depth

Station Depth Elevation

Earthquake Activity

City Distance Mag. Time & Date
Minimum magnitude displayed is 2.5.

Coastal Water Temperatures

Place Temperature

Stations

Nearby Weather Stations

Station Location Temp. Windchill Dew Point Humidity Wind Precip. Elev Updated Type
                   

Watches & Warnings

There are currently no watches in effect.